Time;durP1;ratioP1;P1;durP2;ratioP2;P2;SDS_P1;SDS_P2;PMS_P1;PMS_P2;Temp;Humidity;BMP_temperature;BMP_pressure;BME280_temperature;BME280_humidity;BME280_pressure;Samples;Min_cycle;Max_cycle;Signal;HPM_P1;HPM_P2
2022/05/08 00:05:39;;;;;;;3.20;2.88;;;;;;;24.00;38.71;100769.28;20422299;28;98453;-74
2022/05/08 00:15:40;;;;;;;2.73;2.53;;;;;;;23.98;38.83;100755.34;20422675;28;98035;-73
2022/05/08 00:25:41;;;;;;;3.15;2.85;;;;;;;23.98;39.08;100752.69;20436924;28;97201;-73
2022/05/08 00:35:42;;;;;;;2.85;2.47;;;;;;;23.95;39.07;100748.50;20437671;28;96960;-73
2022/05/08 00:45:43;;;;;;;3.13;2.70;;;;;;;23.93;38.99;100739.84;20444637;28;97247;-72
2022/05/08 00:55:43;;;;;;;3.55;2.83;;;;;;;23.94;38.95;100738.91;20435818;28;97335;-74
2022/05/08 01:05:44;;;;;;;3.10;2.73;;;;;;;23.92;39.14;100735.53;20434139;28;102450;-72
2022/05/08 01:15:47;;;;;;;4.25;2.70;;;;;;;23.94;39.24;100741.53;20436817;28;101173;-73
2022/05/08 01:25:55;;;;;;;3.17;2.40;;;;;;;23.92;39.46;100739.97;20433011;28;98109;-74
2022/05/08 01:35:56;;;;;;;3.15;2.78;;;;;;;23.92;39.50;100740.81;20435750;28;97494;-74
2022/05/08 01:45:57;;;;;;;3.20;2.75;;;;;;;23.92;39.65;100739.97;20437087;28;98112;-74
2022/05/08 01:55:57;;;;;;;2.63;2.42;;;;;;;23.92;39.86;100732.88;20440004;28;98900;-74
2022/05/08 02:05:58;;;;;;;3.65;2.75;;;;;;;23.91;39.92;100736.50;20441458;28;100289;-74
2022/05/08 02:15:58;;;;;;;2.95;2.60;;;;;;;23.89;40.31;100725.19;20439242;28;97668;-73
2022/05/08 02:25:59;;;;;;;3.70;2.58;;;;;;;23.90;40.16;100726.88;20432253;28;100229;-74
2022/05/08 02:35:59;;;;;;;3.35;2.63;;;;;;;23.90;40.32;100734.81;20424959;28;97802;-73
2022/05/08 02:46:02;;;;;;;2.70;2.50;;;;;;;23.89;40.64;100738.41;20436245;28;97748;-74
2022/05/08 03:06:22;;;;;;;3.00;2.70;;;;;;;23.88;40.54;100738.56;20429150;28;97833;-74
2022/05/08 03:16:23;;;;;;;2.60;2.40;;;;;;;23.86;40.64;100751.88;20429247;28;97904;-73
2022/05/08 03:26:26;;;;;;;2.90;2.60;;;;;;;23.86;40.78;100749.25;20452621;28;97751;-74
2022/05/08 03:36:27;;;;;;;2.95;2.67;;;;;;;23.85;40.67;100760.78;20440631;28;97173;-74
2022/05/08 03:46:27;;;;;;;2.50;2.30;;;;;;;23.86;40.77;100770.41;20416313;28;98897;-74
2022/05/08 03:56:28;;;;;;;4.95;2.55;;;;;;;23.86;41.10;100783.63;20424100;28;97505;-73
2022/05/08 04:06:30;;;;;;;2.90;2.70;;;;;;;23.83;40.97;100792.66;20440014;28;101640;-74
2022/05/08 04:16:31;;;;;;;2.70;2.50;;;;;;;23.86;41.12;100798.66;20440132;28;101109;-76
2022/05/08 04:26:33;;;;;;;3.77;2.50;;;;;;;23.83;41.17;100805.88;20459867;28;97040;-76
2022/05/08 04:36:33;;;;;;;2.70;2.50;;;;;;;23.85;41.14;100805.72;20448010;28;97630;-77
2022/05/08 04:46:35;;;;;;;2.97;2.30;;;;;;;23.85;41.44;100815.50;20436411;28;97622;-76
2022/05/08 04:56:35;;;;;;;2.43;2.23;;;;;;;23.84;41.40;100817.31;20423503;28;97556;-76
2022/05/08 05:06:36;;;;;;;2.72;2.40;;;;;;;23.87;40.70;100826.78;20358216;28;98054;-76
2022/05/08 05:16:36;;;;;;;4.00;2.55;;;;;;;23.86;41.26;100833.03;20356678;28;98167;-76
2022/05/08 05:26:37;;;;;;;3.80;2.78;;;;;;;23.90;41.23;100842.38;20359538;28;97201;-77
2022/05/08 05:36:37;;;;;;;2.90;2.60;;;;;;;23.91;41.36;100842.28;20381367;28;97259;-77
2022/05/08 05:56:57;;;;;;;8.73;7.28;;;;;;;22.43;42.17;100849.38;20380355;28;97931;-76
2022/05/08 06:06:57;;;;;;;6.82;4.95;;;;;;;22.24;42.27;100847.28;20373121;28;99998;-75
2022/05/08 06:16:58;;;;;;;15.77;9.98;;;;;;;21.77;43.65;100843.72;20358689;28;101174;-73
2022/05/08 06:26:58;;;;;;;7.55;5.40;;;;;;;21.68;44.23;100838.16;20353992;28;97474;-76
2022/05/08 06:36:59;;;;;;;13.85;7.72;;;;;;;22.14;43.23;100841.84;20360646;28;97227;-76
2022/05/08 06:46:59;;;;;;;57.50;48.42;;;;;;;22.40;42.75;100847.00;20335126;28;97487;-76
2022/05/08 06:57:00;;;;;;;33.08;27.02;;;;;;;22.61;42.46;100841.88;20336843;28;102068;-76
2022/05/08 07:07:01;;;;;;;59.22;41.42;;;;;;;22.92;42.85;100847.41;20367730;28;98247;-77
2022/05/08 07:17:02;;;;;;;38.33;28.38;;;;;;;23.12;42.23;100848.53;20368772;28;97161;-79
2022/05/08 07:27:03;;;;;;;28.25;20.88;;;;;;;23.27;42.10;100850.94;20362153;28;97583;-76
2022/05/08 07:37:03;;;;;;;13.43;9.57;;;;;;;23.29;41.15;100846.38;20347418;28;97786;-76
2022/05/08 07:47:04;;;;;;;9.35;7.03;;;;;;;23.30;40.86;100851.56;20357517;28;97287;-76
2022/05/08 07:57:05;;;;;;;8.75;5.57;;;;;;;23.33;40.97;100845.19;20369242;28;97680;-78
2022/05/08 08:07:05;;;;;;;13.27;5.57;;;;;;;23.36;40.03;100854.66;20342037;28;97507;-75
2022/05/08 08:17:06;;;;;;;7.70;5.22;;;;;;;23.44;39.93;100858.38;20338990;28;97801;-75
2022/05/08 08:27:07;;;;;;;8.63;5.13;;;;;;;23.42;38.53;100862.09;20343735;28;97342;-77
2022/05/08 08:37:08;;;;;;;7.57;5.30;;;;;;;23.50;39.11;100864.97;20356717;28;98776;-78
2022/05/08 08:57:32;;;;;;;8.70;6.10;;;;;;;23.48;38.75;100865.06;20429237;28;97954;-76
2022/05/08 09:07:58;;;;;;;5.00;4.50;;;;;;;23.43;38.32;100861.97;20411861;28;102732;-74
2022/05/08 09:18:03;;;;;;;6.35;4.68;;;;;;;23.53;39.71;100861.25;20371190;28;97884;-76
2022/05/08 09:28:03;;;;;;;5.65;4.53;;;;;;;23.55;39.00;100849.59;20294004;28;100021;-79
2022/05/08 09:38:04;;;;;;;5.65;4.50;;;;;;;23.65;38.80;100844.41;20304290;28;99460;-78
2022/05/08 09:48:07;;;;;;;6.10;4.40;;;;;;;23.65;39.31;100841.75;20350091;28;101869;-79
2022/05/08 09:58:07;;;;;;;7.50;4.85;;;;;;;23.66;38.97;100836.34;20388979;28;97000;-77
2022/05/08 10:08:08;;;;;;;6.57;5.40;;;;;;;23.68;38.75;100828.31;20355313;28;102031;-77
2022/05/08 10:18:32;;;;;;;6.75;4.38;;;;;;;23.77;38.67;100818.78;20316827;28;100751;-76
2022/05/08 10:28:52;;;;;;;10.57;5.03;;;;;;;23.87;39.25;100809.09;20305473;28;97896;-75
2022/05/08 10:39:31;;;;;;;7.28;4.32;;;;;;;23.93;38.50;100811.28;20290062;28;97768;-77
2022/05/08 10:49:32;;;;;;;4.88;4.47;;;;;;;24.07;38.37;100815.44;20346940;28;99724;-77
2022/05/08 10:59:45;;;;;;;7.05;4.68;;;;;;;23.90;37.50;100810.66;20316204;28;102035;-76
2022/05/08 11:09:45;;;;;;;8.00;4.50;;;;;;;24.09;38.04;100804.72;20310194;28;97067;-78
2022/05/08 11:19:52;;;;;;;7.70;4.05;;;;;;;24.12;37.45;100783.28;20314994;28;96907;-77
2022/05/08 11:29:53;;;;;;;5.38;3.80;;;;;;;24.30;36.62;100770.31;20310892;28;97074;-78
2022/05/08 11:39:53;;;;;;;5.53;4.25;;;;;;;24.37;36.28;100768.81;20343714;28;104768;-78
2022/05/08 11:49:54;;;;;;;5.75;4.43;;;;;;;24.48;36.34;100761.78;20340585;28;99322;-78
2022/05/08 12:00:00;;;;;;;4.70;4.20;;;;;;;24.58;35.82;100765.31;20322447;28;97962;-77
2022/05/08 12:10:01;;;;;;;4.97;4.25;;;;;;;24.66;35.28;100754.06;20316594;28;98405;-79
2022/05/08 12:20:09;;;;;;;4.88;4.20;;;;;;;24.55;34.98;100747.88;20301962;28;99065;-77
2022/05/08 12:30:10;;;;;;;4.85;4.10;;;;;;;24.67;35.54;100742.50;20302293;28;100005;-76
2022/05/08 12:40:10;;;;;;;6.40;5.57;;;;;;;24.56;35.50;100738.13;20347790;28;97730;-80
2022/05/08 12:50:11;;;;;;;7.35;4.38;;;;;;;24.53;35.14;100719.88;20370891;28;98303;-81
2022/05/08 13:00:12;;;;;;;6.18;4.55;;;;;;;24.66;35.04;100717.88;20367413;28;100089;-80
2022/05/08 13:10:13;;;;;;;10.40;5.10;;;;;;;24.73;35.79;100707.56;20329672;28;100262;-79
2022/05/08 13:20:13;;;;;;;6.55;4.78;;;;;;;24.83;35.52;100705.78;20332784;28;97894;-76
2022/05/08 13:30:14;;;;;;;5.80;4.50;;;;;;;24.94;35.69;100695.06;20335769;28;101928;-77
2022/05/08 13:40:16;;;;;;;4.97;4.47;;;;;;;25.02;34.58;100690.91;20344637;28;99262;-79
2022/05/08 13:50:16;;;;;;;6.80;3.70;;;;;;;25.16;33.37;100692.31;20334777;28;100599;-79
2022/05/08 14:00:17;;;;;;;5.07;3.70;;;;;;;25.25;32.00;100680.88;20337634;28;100913;-80
2022/05/08 14:10:18;;;;;;;5.67;3.77;;;;;;;25.24;32.64;100666.81;20342692;28;98297;-80
2022/05/08 14:20:19;;;;;;;6.80;3.80;;;;;;;25.24;32.11;100665.97;20345032;28;100412;-79
2022/05/08 14:30:19;;;;;;;5.20;3.97;;;;;;;25.29;32.41;100661.06;20343374;28;97874;-77
2022/05/08 14:40:20;;;;;;;5.07;3.72;;;;;;;25.33;33.23;100657.19;20325064;28;98479;-77
2022/05/08 14:50:22;;;;;;;4.77;3.77;;;;;;;25.38;31.61;100659.44;20361728;28;97010;-75
2022/05/08 15:00:23;;;;;;;11.85;4.18;;;;;;;25.36;34.87;100653.41;20359927;28;98902;-75
2022/05/08 15:10:24;;;;;;;4.60;3.57;;;;;;;25.53;33.95;100663.31;20345692;28;100357;-75
2022/05/08 15:20:25;;;;;;;5.00;3.45;;;;;;;25.71;33.94;100659.97;20368318;28;98419;-76
2022/05/08 15:30:25;;;;;;;4.32;3.63;;;;;;;25.77;33.14;100663.84;20350755;28;97611;-77
2022/05/08 15:40:26;;;;;;;4.53;3.10;;;;;;;25.79;33.02;100659.25;20348235;28;97081;-79
2022/05/08 15:50:26;;;;;;;4.47;3.42;;;;;;;25.69;33.74;100662.75;20356051;28;98278;-77
2022/05/08 16:00:29;;;;;;;8.15;3.60;;;;;;;25.55;34.63;100672.00;20345386;28;96992;-78
2022/05/08 16:10:29;;;;;;;6.15;3.88;;;;;;;25.29;35.91;100676.97;20326654;28;98131;-77
2022/05/08 16:30:49;;;;;;;5.47;3.65;;;;;;;25.25;35.56;100707.41;20363684;28;102240;-74
2022/05/08 16:40:50;;;;;;;8.90;3.60;;;;;;;25.23;35.50;100722.59;20344761;28;98992;-74
2022/05/08 16:50:52;;;;;;;10.80;4.28;;;;;;;25.12;34.93;100733.31;20343726;28;100766;-75
2022/05/08 17:00:55;;;;;;;9.77;4.90;;;;;;;25.03;34.45;100745.56;20352937;28;98270;-76
2022/05/08 17:10:56;;;;;;;7.57;4.75;;;;;;;24.88;33.46;100756.53;20347689;28;100515;-76
2022/05/08 17:20:56;;;;;;;5.45;3.92;;;;;;;24.76;34.17;100773.50;20358071;28;98092;-75
2022/05/08 17:30:56;;;;;;;6.40;3.70;;;;;;;24.68;35.28;100776.84;20357701;28;97809;-76
2022/05/08 17:40:58;;;;;;;4.45;3.38;;;;;;;24.58;34.38;100782.06;20333446;28;100440;-77
2022/05/08 17:50:59;;;;;;;12.03;3.50;;;;;;;24.48;34.42;100790.91;20410545;28;96853;-78
2022/05/08 18:01:00;;;;;;;4.77;3.43;;;;;;;24.36;34.27;100795.44;20463294;28;97090;-77
2022/05/08 18:11:00;;;;;;;6.30;3.70;;;;;;;24.41;34.71;100798.50;20436153;28;101552;-77
2022/05/08 18:21:02;;;;;;;6.15;4.90;;;;;;;24.21;34.59;100816.09;20420132;28;97684;-74
2022/05/08 18:31:03;;;;;;;7.30;4.30;;;;;;;23.91;34.73;100830.84;20389883;28;100413;-73
2022/05/08 18:41:03;;;;;;;9.90;5.93;;;;;;;24.06;35.58;100840.19;20394469;28;101790;-77
2022/05/08 18:51:04;;;;;;;8.13;5.13;;;;;;;24.44;35.70;100836.16;20409074;28;97376;-76
2022/05/08 19:01:04;;;;;;;12.68;5.15;;;;;;;24.58;35.64;100853.53;20335749;28;98346;-76
2022/05/08 19:11:05;;;;;;;5.75;3.95;;;;;;;24.65;36.63;100853.84;20326300;28;98240;-76
2022/05/08 19:21:05;;;;;;;9.45;4.00;;;;;;;24.65;36.77;100858.31;20369028;28;97827;-74
2022/05/08 19:41:28;;;;;;;3.25;2.95;;;;;;;24.60;36.77;100869.28;20383927;28;96956;-76
2022/05/08 19:51:29;;;;;;;4.63;3.38;;;;;;;24.58;36.93;100863.28;20358051;28;102335;-76
2022/05/08 20:01:29;;;;;;;4.18;3.13;;;;;;;24.57;36.84;100874.81;20347729;28;101341;-74
2022/05/08 20:11:30;;;;;;;3.10;2.80;;;;;;;24.54;37.05;100883.03;20363681;28;101054;-74
2022/05/08 20:31:50;;;;;;;3.03;2.72;;;;;;;24.49;36.98;100890.53;20371031;28;98087;-74
2022/05/08 20:41:52;;;;;;;3.65;2.80;;;;;;;24.44;37.16;100888.28;20358399;28;97526;-76
2022/05/08 20:51:53;;;;;;;6.07;2.60;;;;;;;24.41;37.39;100892.00;20377757;28;97065;-76
2022/05/08 21:01:53;;;;;;;4.40;2.95;;;;;;;24.37;37.08;100887.94;20360026;28;97031;-78
2022/05/08 21:11:57;;;;;;;4.47;2.97;;;;;;;24.42;37.83;100893.66;20365567;28;97102;-78
2022/05/08 21:21:57;;;;;;;4.25;3.15;;;;;;;24.45;38.04;100897.88;20369446;28;101457;-77
2022/05/08 21:31:57;;;;;;;5.05;2.95;;;;;;;24.47;38.43;100901.22;20366844;28;102572;-78
2022/05/08 21:41:58;;;;;;;4.40;3.00;;;;;;;24.48;38.50;100899.44;20374523;28;97801;-78
2022/05/08 21:51:59;;;;;;;3.95;3.05;;;;;;;24.48;38.32;100910.03;20366366;28;101471;-78
2022/05/08 22:01:59;;;;;;;2.83;2.30;;;;;;;24.48;38.28;100910.84;20401570;28;97828;-78
2022/05/08 22:12:00;;;;;;;5.00;2.72;;;;;;;24.46;38.28;100916.28;20445137;28;96997;-77
2022/05/08 22:22:00;;;;;;;3.55;2.70;;;;;;;24.48;38.48;100915.31;20451519;28;98393;-78
2022/05/08 22:32:01;;;;;;;3.80;3.00;;;;;;;24.45;38.61;100916.44;20453415;28;97260;-78
2022/05/08 22:42:01;;;;;;;2.80;2.40;;;;;;;24.37;38.82;100908.28;20459706;28;102169;-79
2022/05/08 22:52:02;;;;;;;3.80;2.72;;;;;;;24.34;38.96;100913.81;20441926;28;97162;-77
2022/05/08 23:02:03;;;;;;;3.00;2.70;;;;;;;24.29;39.07;100915.03;20448580;28;97704;-78
2022/05/08 23:12:04;;;;;;;3.17;2.60;;;;;;;24.29;39.12;100916.81;20443200;28;97830;-77
2022/05/08 23:22:05;;;;;;;2.88;2.45;;;;;;;24.28;39.39;100913.34;20438230;28;100989;-78
2022/05/08 23:32:05;;;;;;;2.85;2.55;;;;;;;24.29;39.44;100908.88;20447426;28;97316;-78
2022/05/08 23:42:07;;;;;;;3.47;2.72;;;;;;;24.21;39.55;100912.19;20454121;28;97843;-78
2022/05/08 23:52:10;;;;;;;4.13;2.70;;;;;;;24.20;39.69;100910.50;20455327;28;97507;-78
